WZZ3032 EHEH-LHBP
Flight info
| Callsign | WZZ3032 |
|---|---|
| Flight time | N/A |
| Altitude | 37000 |
| Route | VELNI DCT ONUNE DCT GMH DCT ESAMA DCT OSBIT DCT BARSU DCT EKSOS DCT LULAR DCT RUDAP DCT BUDEX DCT MAREG DCT ANEXA |
| Aircraft | A321/M-SDE3FGHIRWY/LB1 |
Departure
| Time | 2026-05-01 14:01 |
|---|---|
| Airport | Eindhoven Airport (EHEH) |
Arrival
| Time | N/A |
|---|---|
| Airport | Budapest Liszt Ferenc International Airport (LHBP) |
| Time | Latitude | Longitude | Altitude | Speed | Heading |
|---|---|---|---|---|---|
| 2026-05-01 13:21 | 51.45830 | 5.39043 | 88 ft | 0 kts | 125° |
| 2026-05-01 13:51 | 51.45832 | 5.39038 | 83 ft | 3 kts | 125° |
| 2026-05-01 13:52 | 51.45847 | 5.39003 | 87 ft | 4 kts | 125° |
| 2026-05-01 13:52 | 51.45859 | 5.38974 | 87 ft | 4 kts | 111° |
| 2026-05-01 13:52 | 51.45862 | 5.38936 | 88 ft | 4 kts | 69° |
| 2026-05-01 13:52 | 51.45849 | 5.38905 | 87 ft | 2 kts | 35° |
| 2026-05-01 13:53 | 51.45848 | 5.38904 | 87 ft | 0 kts | 35° |
| 2026-05-01 13:55 | 51.45849 | 5.38905 | 87 ft | 0 kts | 35° |
| 2026-05-01 13:56 | 51.45857 | 5.38914 | 83 ft | 4 kts | 35° |
| 2026-05-01 13:56 | 51.45889 | 5.38949 | 86 ft | 7 kts | 35° |
| 2026-05-01 13:56 | 51.45929 | 5.38994 | 84 ft | 6 kts | 35° |
| 2026-05-01 13:56 | 51.45970 | 5.39010 | 84 ft | 7 kts | 340° |
| 2026-05-01 13:57 | 51.46005 | 5.38950 | 83 ft | 8 kts | 306° |
| 2026-05-01 13:57 | 51.46027 | 5.38898 | 86 ft | 9 kts | 305° |
| 2026-05-01 13:57 | 51.46058 | 5.38829 | 86 ft | 0 kts | 305° |
| 2026-05-01 13:58 | 51.46063 | 5.38819 | 87 ft | 4 kts | 305° |
| 2026-05-01 13:58 | 51.46091 | 5.38754 | 86 ft | 9 kts | 305° |
| 2026-05-01 13:58 | 51.46115 | 5.38699 | 87 ft | 4 kts | 296° |
| 2026-05-01 13:58 | 51.46102 | 5.38668 | 88 ft | 4 kts | 217° |
| 2026-05-01 13:59 | 51.46099 | 5.38666 | 88 ft | 0 kts | 214° |
| 2026-05-01 14:00 | 51.46084 | 5.38649 | 85 ft | 20 kts | 215° |
| 2026-05-01 14:00 | 51.45744 | 5.38273 | 84 ft | 97 kts | 215° |
| 2026-05-01 14:00 | 51.45012 | 5.37450 | 84 ft | 158 kts | 214° |
| 2026-05-01 14:01 | 51.44012 | 5.36327 | 359 ft | 183 kts | 212° |
| 2026-05-01 14:01 | 51.42962 | 5.35163 | 1082 ft | 182 kts | 210° |
| 2026-05-01 14:01 | 51.41941 | 5.34026 | 2010 ft | 175 kts | 211° |
| 2026-05-01 14:01 | 51.40914 | 5.32884 | 2630 ft | 188 kts | 211° |
| 2026-05-01 14:02 | 51.39746 | 5.32173 | 3305 ft | 176 kts | 178° |
| 2026-05-01 14:02 | 51.38612 | 5.32754 | 4049 ft | 173 kts | 143° |
| 2026-05-01 14:02 | 51.37805 | 5.34197 | 4736 ft | 176 kts | 125° |
| 2026-05-01 14:02 | 51.37303 | 5.36012 | 5342 ft | 181 kts | 114° |
| 2026-05-01 14:03 | 51.37008 | 5.38002 | 5885 ft | 189 kts | 100° |
| 2026-05-01 14:03 | 51.37000 | 5.40156 | 6367 ft | 199 kts | 93° |
| 2026-05-01 14:03 | 51.36973 | 5.42441 | 6653 ft | 215 kts | 98° |
| 2026-05-01 14:03 | 51.36898 | 5.44951 | 6947 ft | 230 kts | 96° |
| 2026-05-01 14:04 | 51.36860 | 5.47562 | 7231 ft | 246 kts | 95° |
| 2026-05-01 14:04 | 51.36839 | 5.50328 | 7925 ft | 247 kts | 94° |
| 2026-05-01 14:04 | 51.36822 | 5.53079 | 8709 ft | 248 kts | 94° |
| 2026-05-01 14:04 | 51.36809 | 5.54948 | 9221 ft | 250 kts | 94° |
| 2026-05-01 14:05 | 51.36791 | 5.58814 | 9730 ft | 277 kts | 94° |
| 2026-05-01 14:05 | 51.36785 | 5.61969 | 10258 ft | 288 kts | 93° |
| 2026-05-01 14:05 | 51.36882 | 5.65279 | 10542 ft | 311 kts | 83° |
| 2026-05-01 14:05 | 51.37592 | 5.68703 | 10724 ft | 337 kts | 66° |
| 2026-05-01 14:06 | 51.38633 | 5.72128 | 11244 ft | 345 kts | 67° |
| 2026-05-01 14:06 | 51.39678 | 5.75614 | 11915 ft | 349 kts | 67° |
| 2026-05-01 14:06 | 51.40724 | 5.79143 | 12640 ft | 352 kts | 68° |
| 2026-05-01 14:06 | 51.41772 | 5.82709 | 13343 ft | 355 kts | 68° |
| 2026-05-01 14:07 | 51.42822 | 5.86309 | 14048 ft | 358 kts | 68° |
| 2026-05-01 14:07 | 51.43879 | 5.89935 | 14650 ft | 361 kts | 68° |
| 2026-05-01 14:07 | 51.44945 | 5.93594 | 15282 ft | 364 kts | 68° |
| 2026-05-01 14:08 | 51.47105 | 6.00996 | 16538 ft | 369 kts | 68° |
| 2026-05-01 14:08 | 51.48181 | 6.04695 | 17158 ft | 372 kts | 68° |
| 2026-05-01 14:08 | 51.49277 | 6.08478 | 17786 ft | 375 kts | 68° |
| 2026-05-01 14:08 | 51.50379 | 6.12286 | 18398 ft | 378 kts | 67° |
| 2026-05-01 14:09 | 51.51397 | 6.16187 | 18941 ft | 379 kts | 75° |
| 2026-05-01 14:09 | 51.51957 | 6.20316 | 19490 ft | 379 kts | 86° |
| 2026-05-01 14:09 | 51.52012 | 6.24538 | 20024 ft | 379 kts | 96° |
| 2026-05-01 14:09 | 51.51596 | 6.28713 | 20563 ft | 380 kts | 103° |
| 2026-05-01 14:10 | 51.51067 | 6.32889 | 21116 ft | 383 kts | 102° |
| 2026-05-01 14:10 | 51.50535 | 6.37088 | 21667 ft | 386 kts | 102° |
| 2026-05-01 14:10 | 51.50001 | 6.41327 | 22202 ft | 389 kts | 102° |
| 2026-05-01 14:10 | 51.49463 | 6.45594 | 22734 ft | 391 kts | 102° |
| 2026-05-01 14:11 | 51.49106 | 6.48429 | 23089 ft | 393 kts | 102° |
| 2026-05-01 14:11 | 51.48011 | 6.57095 | 24063 ft | 399 kts | 102° |
| 2026-05-01 14:11 | 51.47268 | 6.62905 | 24586 ft | 403 kts | 101° |
| 2026-05-01 14:12 | 51.46886 | 6.65884 | 24866 ft | 405 kts | 101° |
| 2026-05-01 14:12 | 51.46316 | 6.70317 | 25257 ft | 407 kts | 101° |
| 2026-05-01 14:12 | 51.45742 | 6.74782 | 25650 ft | 410 kts | 101° |
| 2026-05-01 14:12 | 51.45161 | 6.79277 | 26038 ft | 413 kts | 101° |
| 2026-05-01 14:13 | 51.44575 | 6.83802 | 26421 ft | 416 kts | 101° |
| 2026-05-01 14:13 | 51.43985 | 6.88339 | 26806 ft | 418 kts | 101° |
| 2026-05-01 14:13 | 51.43389 | 6.92923 | 27183 ft | 421 kts | 101° |
| 2026-05-01 14:13 | 51.42791 | 6.97514 | 27563 ft | 423 kts | 101° |
| 2026-05-01 14:14 | 51.42192 | 7.02086 | 27940 ft | 426 kts | 101° |
| 2026-05-01 14:14 | 51.41580 | 7.06740 | 28301 ft | 428 kts | 101° |
| 2026-05-01 14:14 | 51.40962 | 7.11418 | 28671 ft | 431 kts | 101° |
| 2026-05-01 14:14 | 51.40340 | 7.16110 | 29040 ft | 433 kts | 101° |
| 2026-05-01 14:15 | 51.39710 | 7.20859 | 29399 ft | 436 kts | 101° |
| 2026-05-01 14:15 | 51.39073 | 7.25625 | 29755 ft | 438 kts | 101° |
| 2026-05-01 14:15 | 51.38428 | 7.30405 | 30097 ft | 441 kts | 101° |
| 2026-05-01 14:15 | 51.37778 | 7.35206 | 30422 ft | 443 kts | 101° |
| 2026-05-01 14:16 | 51.36949 | 7.39964 | 30692 ft | 447 kts | 109° |
| 2026-05-01 14:16 | 51.35653 | 7.44528 | 30945 ft | 451 kts | 118° |
| 2026-05-01 14:16 | 51.33961 | 7.48776 | 31195 ft | 455 kts | 122° |
| 2026-05-01 14:16 | 51.32194 | 7.53001 | 31462 ft | 458 kts | 122° |
| 2026-05-01 14:17 | 51.30429 | 7.57242 | 31785 ft | 459 kts | 123° |
| 2026-05-01 14:17 | 51.28681 | 7.61444 | 32161 ft | 459 kts | 123° |
| 2026-05-01 14:17 | 51.26915 | 7.65690 | 32516 ft | 459 kts | 123° |
| 2026-05-01 14:17 | 51.25147 | 7.69930 | 32865 ft | 460 kts | 123° |
| 2026-05-01 14:18 | 51.23368 | 7.74181 | 33230 ft | 460 kts | 123° |
| 2026-05-01 14:18 | 51.21584 | 7.78433 | 33559 ft | 461 kts | 123° |
| 2026-05-01 14:18 | 51.19798 | 7.82685 | 33890 ft | 461 kts | 124° |
| 2026-05-01 14:18 | 51.18599 | 7.85487 | 34125 ft | 461 kts | 127° |
| 2026-05-01 14:19 | 51.15747 | 7.90577 | 34525 ft | 461 kts | 139° |
| 2026-05-01 14:19 | 51.13235 | 7.93756 | 34807 ft | 461 kts | 144° |
| 2026-05-01 14:19 | 51.10698 | 7.96740 | 35134 ft | 460 kts | 144° |
| 2026-05-01 14:19 | 51.08135 | 7.99775 | 35449 ft | 459 kts | 144° |
| 2026-05-01 14:20 | 51.05583 | 8.02813 | 35788 ft | 458 kts | 143° |
| 2026-05-01 14:20 | 51.00491 | 8.08877 | 36473 ft | 456 kts | 144° |
| 2026-05-01 14:20 | 50.97949 | 8.11885 | 36792 ft | 455 kts | 144° |
| 2026-05-01 14:21 | 50.95415 | 8.14872 | 37090 ft | 454 kts | 144° |
| 2026-05-01 14:21 | 50.92878 | 8.17858 | 37298 ft | 454 kts | 144° |
| 2026-05-01 14:21 | 50.90346 | 8.20834 | 37343 ft | 453 kts | 144° |
| 2026-05-01 14:22 | 50.82764 | 8.29719 | 37344 ft | 452 kts | 144° |
| 2026-05-01 14:22 | 50.77691 | 8.35647 | 37347 ft | 453 kts | 144° |
| 2026-05-01 14:23 | 50.72631 | 8.41559 | 37344 ft | 453 kts | 144° |
| 2026-05-01 14:23 | 50.67681 | 8.47323 | 37346 ft | 453 kts | 144° |
| 2026-05-01 14:24 | 50.62597 | 8.53221 | 37344 ft | 453 kts | 144° |
| 2026-05-01 14:24 | 50.57511 | 8.59102 | 37339 ft | 454 kts | 144° |
| 2026-05-01 14:25 | 50.52417 | 8.64975 | 37337 ft | 454 kts | 144° |
| 2026-05-01 14:25 | 50.47313 | 8.70843 | 37336 ft | 454 kts | 144° |
| 2026-05-01 14:26 | 50.39655 | 8.79622 | 37341 ft | 455 kts | 144° |
| 2026-05-01 14:27 | 50.34916 | 8.86119 | 37339 ft | 454 kts | 129° |
| 2026-05-01 14:27 | 50.31639 | 8.94511 | 37337 ft | 452 kts | 113° |
| 2026-05-01 14:28 | 50.27758 | 9.07991 | 37343 ft | 453 kts | 114° |
| 2026-05-01 14:28 | 50.25132 | 9.16954 | 37347 ft | 453 kts | 114° |
| 2026-05-01 14:29 | 50.22500 | 9.25906 | 37343 ft | 454 kts | 114° |
| 2026-05-01 14:30 | 50.17246 | 9.43812 | 37349 ft | 453 kts | 114° |
| 2026-05-01 14:31 | 50.13311 | 9.57127 | 37361 ft | 453 kts | 114° |
| 2026-05-01 14:31 | 50.10662 | 9.66030 | 37361 ft | 452 kts | 114° |
| 2026-05-01 14:32 | 50.08002 | 9.74921 | 37364 ft | 452 kts | 114° |
| 2026-05-01 14:32 | 50.05477 | 9.83869 | 37365 ft | 451 kts | 110° |
| 2026-05-01 14:33 | 50.03303 | 9.93011 | 37372 ft | 450 kts | 108° |
| 2026-05-01 14:33 | 50.01199 | 10.02176 | 37373 ft | 450 kts | 109° |
| 2026-05-01 14:34 | 49.99013 | 10.11286 | 37375 ft | 449 kts | 109° |
| 2026-05-01 14:34 | 49.96794 | 10.20274 | 37373 ft | 449 kts | 110° |
| 2026-05-01 14:35 | 49.94546 | 10.29316 | 37380 ft | 448 kts | 109° |
| 2026-05-01 14:35 | 49.92306 | 10.38333 | 37382 ft | 448 kts | 109° |
| 2026-05-01 14:36 | 49.90031 | 10.47337 | 37383 ft | 448 kts | 110° |
| 2026-05-01 14:36 | 49.87701 | 10.56289 | 37382 ft | 447 kts | 110° |
| 2026-05-01 14:37 | 49.85371 | 10.65223 | 37375 ft | 447 kts | 110° |
| 2026-05-01 14:37 | 49.83050 | 10.74104 | 37376 ft | 447 kts | 110° |
| 2026-05-01 14:38 | 49.80715 | 10.83023 | 37380 ft | 447 kts | 110° |
| 2026-05-01 14:38 | 49.78381 | 10.91924 | 37373 ft | 446 kts | 110° |
| 2026-05-01 14:39 | 49.76038 | 11.00812 | 37375 ft | 446 kts | 110° |
| 2026-05-01 14:39 | 49.73700 | 11.09676 | 37371 ft | 445 kts | 110° |
| 2026-05-01 14:40 | 49.71351 | 11.18545 | 37374 ft | 445 kts | 110° |
| 2026-05-01 14:40 | 49.68991 | 11.27387 | 37378 ft | 445 kts | 110° |
| 2026-05-01 14:41 | 49.66625 | 11.36236 | 37382 ft | 445 kts | 110° |
| 2026-05-01 14:41 | 49.64365 | 11.45066 | 37385 ft | 444 kts | 107° |
| 2026-05-01 14:42 | 49.62490 | 11.54116 | 37408 ft | 443 kts | 104° |
| 2026-05-01 14:42 | 49.60726 | 11.63216 | 37418 ft | 443 kts | 105° |
| 2026-05-01 14:43 | 49.58882 | 11.72291 | 37428 ft | 443 kts | 105° |
| 2026-05-01 14:43 | 49.56980 | 11.81314 | 37423 ft | 443 kts | 106° |
| 2026-05-01 14:44 | 49.55059 | 11.90346 | 37430 ft | 443 kts | 106° |
| 2026-05-01 14:44 | 49.52185 | 12.03817 | 37424 ft | 443 kts | 105° |
| 2026-05-01 14:45 | 49.49308 | 12.17335 | 37406 ft | 443 kts | 105° |
| 2026-05-01 14:46 | 49.47383 | 12.26330 | 37400 ft | 443 kts | 106° |
| 2026-05-01 14:46 | 49.44461 | 12.39825 | 37401 ft | 443 kts | 106° |
| 2026-05-01 14:47 | 49.42516 | 12.48797 | 37401 ft | 443 kts | 106° |
| 2026-05-01 14:48 | 49.39574 | 12.62262 | 37406 ft | 443 kts | 106° |
| 2026-05-01 14:48 | 49.36617 | 12.75685 | 37405 ft | 442 kts | 106° |
| 2026-05-01 14:49 | 49.32361 | 12.93335 | 37406 ft | 443 kts | 108° |
| 2026-05-01 14:50 | 49.27975 | 13.10942 | 37406 ft | 442 kts | 107° |
| 2026-05-01 14:51 | 49.24715 | 13.24152 | 37404 ft | 442 kts | 107° |
| 2026-05-01 14:52 | 49.21314 | 13.37261 | 37404 ft | 442 kts | 109° |
| 2026-05-01 14:53 | 49.17753 | 13.50245 | 37406 ft | 442 kts | 109° |
| 2026-05-01 14:53 | 49.15395 | 13.58925 | 37407 ft | 442 kts | 109° |
| 2026-05-01 14:54 | 49.13045 | 13.67594 | 37406 ft | 442 kts | 109° |
| 2026-05-01 14:54 | 49.10685 | 13.76257 | 37402 ft | 441 kts | 109° |
| 2026-05-01 14:55 | 49.08320 | 13.84901 | 37405 ft | 441 kts | 109° |
| 2026-05-01 14:55 | 49.05952 | 13.93534 | 37405 ft | 441 kts | 109° |
| 2026-05-01 14:56 | 49.03576 | 14.02148 | 37404 ft | 441 kts | 109° |
| 2026-05-01 14:56 | 49.01207 | 14.10713 | 37406 ft | 441 kts | 109° |
| 2026-05-01 14:57 | 48.98818 | 14.19325 | 37403 ft | 441 kts | 109° |
| 2026-05-01 14:57 | 48.95223 | 14.32218 | 37403 ft | 440 kts | 109° |
| 2026-05-01 14:58 | 48.92845 | 14.40795 | 37405 ft | 440 kts | 108° |
| 2026-05-01 14:58 | 48.90508 | 14.49378 | 37401 ft | 439 kts | 108° |
| 2026-05-01 14:59 | 48.88171 | 14.57948 | 37401 ft | 438 kts | 108° |
| 2026-05-01 14:59 | 48.85819 | 14.66477 | 37402 ft | 438 kts | 108° |
| 2026-05-01 15:00 | 48.82278 | 14.79252 | 37396 ft | 437 kts | 108° |
| 2026-05-01 15:01 | 48.79918 | 14.87750 | 37405 ft | 437 kts | 108° |
| 2026-05-01 15:01 | 48.77554 | 14.96236 | 37401 ft | 437 kts | 108° |
| 2026-05-01 15:02 | 48.75178 | 15.04714 | 37393 ft | 437 kts | 108° |
| 2026-05-01 15:02 | 48.72796 | 15.13180 | 37389 ft | 436 kts | 108° |
| 2026-05-01 15:03 | 48.70421 | 15.21631 | 37386 ft | 436 kts | 108° |
| 2026-05-01 15:03 | 48.68437 | 15.28640 | 37389 ft | 436 kts | 108° |
| 2026-05-01 15:04 | 48.65645 | 15.38433 | 37380 ft | 436 kts | 108° |
| 2026-05-01 15:04 | 48.63245 | 15.46854 | 37383 ft | 436 kts | 108° |
| 2026-05-01 15:05 | 48.61248 | 15.53847 | 37369 ft | 436 kts | 108° |
| 2026-05-01 15:05 | 48.58843 | 15.62241 | 37371 ft | 435 kts | 108° |
| 2026-05-01 15:06 | 48.56433 | 15.70621 | 37372 ft | 435 kts | 108° |
| 2026-05-01 15:06 | 48.54009 | 15.78994 | 37367 ft | 435 kts | 108° |
| 2026-05-01 15:07 | 48.51583 | 15.87354 | 37366 ft | 435 kts | 108° |
| 2026-05-01 15:07 | 48.49152 | 15.95704 | 37363 ft | 435 kts | 108° |
| 2026-05-01 15:08 | 48.46725 | 16.04032 | 37361 ft | 435 kts | 108° |
| 2026-05-01 15:08 | 48.44285 | 16.12393 | 37365 ft | 435 kts | 108° |
| 2026-05-01 15:09 | 48.41834 | 16.20717 | 37367 ft | 435 kts | 108° |
| 2026-05-01 15:09 | 48.39375 | 16.29035 | 37363 ft | 435 kts | 108° |
| 2026-05-01 15:10 | 48.36910 | 16.37365 | 37364 ft | 435 kts | 108° |
| 2026-05-01 15:10 | 48.33206 | 16.49826 | 37363 ft | 435 kts | 108° |
| 2026-05-01 15:11 | 48.29490 | 16.62257 | 37362 ft | 435 kts | 108° |
| 2026-05-01 15:12 | 48.27023 | 16.70492 | 37360 ft | 435 kts | 108° |
| 2026-05-01 15:12 | 48.23290 | 16.82889 | 37359 ft | 435 kts | 108° |
| 2026-05-01 15:13 | 48.19519 | 16.95310 | 36816 ft | 433 kts | 107° |
| 2026-05-01 15:14 | 48.17579 | 17.03741 | 36307 ft | 427 kts | 101° |
| 2026-05-01 15:14 | 48.16692 | 17.07909 | 36047 ft | 424 kts | 101° |
| 2026-05-01 15:14 | 48.14894 | 17.16268 | 35103 ft | 420 kts | 101° |
| 2026-05-01 15:15 | 48.13103 | 17.24544 | 34110 ft | 416 kts | 101° |
| 2026-05-01 15:15 | 48.11333 | 17.32720 | 33127 ft | 409 kts | 101° |
| 2026-05-01 15:16 | 48.09583 | 17.40750 | 32163 ft | 403 kts | 101° |
| 2026-05-01 15:16 | 48.07853 | 17.48653 | 31216 ft | 396 kts | 101° |
| 2026-05-01 15:17 | 48.06154 | 17.56418 | 30296 ft | 390 kts | 101° |
| 2026-05-01 15:18 | 48.03653 | 17.67760 | 28958 ft | 375 kts | 101° |
| 2026-05-01 15:18 | 48.02840 | 17.71437 | 28543 ft | 371 kts | 101° |
| 2026-05-01 15:19 | 48.00440 | 17.82247 | 27347 ft | 361 kts | 101° |
| 2026-05-01 15:19 | 47.98869 | 17.89300 | 26587 ft | 355 kts | 101° |
| 2026-05-01 15:19 | 47.98093 | 17.92784 | 26187 ft | 352 kts | 101° |
| 2026-05-01 15:20 | 47.96560 | 17.99661 | 25401 ft | 347 kts | 101° |
| 2026-05-01 15:20 | 47.95795 | 18.03068 | 25002 ft | 345 kts | 101° |
| 2026-05-01 15:20 | 47.95042 | 18.06411 | 24610 ft | 343 kts | 101° |
| 2026-05-01 15:21 | 47.94284 | 18.09774 | 24203 ft | 341 kts | 101° |
| 2026-05-01 15:21 | 47.93533 | 18.13113 | 23785 ft | 339 kts | 101° |
| 2026-05-01 15:21 | 47.92785 | 18.16428 | 23332 ft | 336 kts | 101° |
| 2026-05-01 15:21 | 47.92043 | 18.19710 | 22928 ft | 332 kts | 101° |
| 2026-05-01 15:22 | 47.90581 | 18.26155 | 22124 ft | 325 kts | 101° |
| 2026-05-01 15:22 | 47.89862 | 18.29329 | 21727 ft | 322 kts | 101° |
| 2026-05-01 15:22 | 47.89148 | 18.32481 | 21330 ft | 319 kts | 101° |
| 2026-05-01 15:23 | 47.88440 | 18.35589 | 20940 ft | 316 kts | 102° |
| 2026-05-01 15:23 | 47.87734 | 18.38683 | 20551 ft | 314 kts | 101° |
| 2026-05-01 15:23 | 47.87031 | 18.41752 | 20161 ft | 312 kts | 102° |
| 2026-05-01 15:23 | 47.86314 | 18.44795 | 19774 ft | 312 kts | 105° |
| 2026-05-01 15:24 | 47.85255 | 18.47655 | 19378 ft | 320 kts | 118° |
| 2026-05-01 15:24 | 47.83751 | 18.50104 | 18972 ft | 329 kts | 133° |
| 2026-05-01 15:24 | 47.81854 | 18.52077 | 18544 ft | 335 kts | 140° |
| 2026-05-01 15:24 | 47.79863 | 18.53965 | 18080 ft | 334 kts | 140° |
| 2026-05-01 15:25 | 47.77937 | 18.55799 | 17665 ft | 333 kts | 140° |
| 2026-05-01 15:25 | 47.75990 | 18.57658 | 17244 ft | 331 kts | 140° |
| 2026-05-01 15:25 | 47.74054 | 18.59505 | 16824 ft | 330 kts | 140° |
| 2026-05-01 15:25 | 47.72125 | 18.61345 | 16417 ft | 329 kts | 140° |
| 2026-05-01 15:26 | 47.70203 | 18.63178 | 16038 ft | 327 kts | 140° |
| 2026-05-01 15:26 | 47.68439 | 18.65243 | 15658 ft | 317 kts | 128° |
| 2026-05-01 15:26 | 47.66968 | 18.67638 | 15298 ft | 312 kts | 124° |
| 2026-05-01 15:26 | 47.65521 | 18.70037 | 14938 ft | 311 kts | 124° |
| 2026-05-01 15:27 | 47.64079 | 18.72407 | 14579 ft | 309 kts | 124° |
| 2026-05-01 15:27 | 47.62640 | 18.74763 | 14219 ft | 307 kts | 125° |
| 2026-05-01 15:27 | 47.61209 | 18.77103 | 13837 ft | 305 kts | 125° |
| 2026-05-01 15:28 | 47.58403 | 18.81694 | 13103 ft | 300 kts | 125° |
| 2026-05-01 15:28 | 47.57010 | 18.83977 | 12744 ft | 297 kts | 126° |
| 2026-05-01 15:28 | 47.55630 | 18.86236 | 12387 ft | 295 kts | 126° |
| 2026-05-01 15:29 | 47.52880 | 18.90728 | 11670 ft | 293 kts | 126° |
| 2026-05-01 15:29 | 47.51516 | 18.92960 | 11315 ft | 292 kts | 126° |
| 2026-05-01 15:29 | 47.48776 | 18.97449 | 10362 ft | 299 kts | 127° |
| 2026-05-01 15:30 | 47.46000 | 19.01965 | 9649 ft | 294 kts | 128° |
| 2026-05-01 15:31 | 47.40509 | 19.10881 | 8131 ft | 290 kts | 129° |
| 2026-05-01 15:31 | 47.37799 | 19.15271 | 7427 ft | 288 kts | 130° |
| 2026-05-01 15:32 | 47.35103 | 19.19622 | 6732 ft | 286 kts | 130° |
| 2026-05-01 15:32 | 47.32451 | 19.23906 | 6026 ft | 282 kts | 130° |
| 2026-05-01 15:33 | 47.28497 | 19.30287 | 4973 ft | 277 kts | 131° |
| 2026-05-01 15:34 | 47.24656 | 19.36462 | 4167 ft | 264 kts | 130° |